createdAt,value
2024-05-09T00:00:30.475Z,750.3
2024-05-09T00:01:46.631Z,750.4
2024-05-09T00:03:02.769Z,750.3
2024-05-09T00:05:35.056Z,750.3
2024-05-09T00:08:07.348Z,750.3
2024-05-09T00:09:23.489Z,750.3
2024-05-09T00:10:39.633Z,750.3
2024-05-09T00:11:55.778Z,750.3
2024-05-09T00:13:11.921Z,750.1
2024-05-09T00:15:44.201Z,750.3
2024-05-09T00:18:15.497Z,750.4
2024-05-09T00:19:31.651Z,750.4
2024-05-09T00:20:47.806Z,750.4
2024-05-09T00:22:03.948Z,750.3
2024-05-09T00:23:20.082Z,750.4
2024-05-09T00:24:36.223Z,750.3
2024-05-09T00:25:52.360Z,750.5
2024-05-09T00:27:08.514Z,750.4
2024-05-09T00:28:24.657Z,750.5
2024-05-09T00:30:56.930Z,750.6
2024-05-09T00:32:13.076Z,750.6
2024-05-09T00:33:29.237Z,750.6
2024-05-09T00:34:44.389Z,750.5
2024-05-09T00:36:00.529Z,750.6
2024-05-09T00:37:16.667Z,750.6
2024-05-09T00:38:32.822Z,750.6
2024-05-09T00:39:48.957Z,750.7
2024-05-09T00:41:05.100Z,750.7
2024-05-09T00:43:37.386Z,750.7
2024-05-09T00:44:53.523Z,750.7
2024-05-09T00:46:09.679Z,750.7
2024-05-09T00:47:25.815Z,750.7
2024-05-09T00:48:41.957Z,750.8
2024-05-09T00:49:58.117Z,750.8
2024-05-09T00:51:13.275Z,750.8
2024-05-09T00:53:45.563Z,750.8
2024-05-09T00:56:17.856Z,750.8
2024-05-09T00:57:34.002Z,750.8
2024-05-09T00:58:50.129Z,750.8
2024-05-09T01:00:06.273Z,750.9
2024-05-09T01:01:22.432Z,750.9
2024-05-09T01:02:38.561Z,751
2024-05-09T01:03:54.720Z,750.9
2024-05-09T01:05:10.847Z,750.9
2024-05-09T01:06:26.994Z,751
2024-05-09T01:08:58.294Z,751.1
2024-05-09T01:10:14.444Z,751
2024-05-09T01:11:30.589Z,751
2024-05-09T01:12:46.733Z,751
2024-05-09T01:14:02.880Z,751.1
2024-05-09T01:15:19.015Z,751.1
2024-05-09T01:16:35.161Z,751
2024-05-09T01:17:51.307Z,751.2
2024-05-09T01:19:07.444Z,751.1
2024-05-09T01:21:39.734Z,751.1
2024-05-09T01:22:55.877Z,751
2024-05-09T01:24:12.026Z,751.1
2024-05-09T01:25:27.171Z,751.1
2024-05-09T01:26:43.333Z,751.1
2024-05-09T01:27:59.466Z,751.1
2024-05-09T01:29:15.603Z,751.2
2024-05-09T01:30:31.751Z,751.2
2024-05-09T01:31:47.901Z,751.2
2024-05-09T01:34:20.186Z,751.3
2024-05-09T01:35:36.334Z,751.3
2024-05-09T01:36:52.462Z,751.3
2024-05-09T01:38:08.607Z,751.3
2024-05-09T01:39:24.749Z,751.3
2024-05-09T01:40:40.889Z,751.4
2024-05-09T01:41:56.061Z,751.4
2024-05-09T01:44:28.362Z,751.4
2024-05-09T01:47:00.649Z,751.6
2024-05-09T01:48:16.785Z,751.5
2024-05-09T01:49:32.917Z,751.5
2024-05-09T01:50:49.061Z,751.5
2024-05-09T01:52:05.219Z,751.5
2024-05-09T01:53:21.349Z,751.6
2024-05-09T01:54:37.501Z,751.6
2024-05-09T01:55:53.632Z,751.6
2024-05-09T01:57:09.789Z,751.6
2024-05-09T01:59:41.097Z,751.6
2024-05-09T02:00:57.224Z,751.7
2024-05-09T02:02:13.369Z,751.7
2024-05-09T02:03:29.513Z,751.5
2024-05-09T02:04:45.663Z,751.6
2024-05-09T02:06:01.806Z,751.6
2024-05-09T02:07:17.950Z,751.6
2024-05-09T02:08:34.085Z,751.6
2024-05-09T02:12:22.513Z,751.7
2024-05-09T02:13:38.672Z,751.7
2024-05-09T02:14:54.805Z,751.6
2024-05-09T02:16:10.953Z,751.8
2024-05-09T02:17:26.112Z,751.8
2024-05-09T02:18:42.246Z,751.8
2024-05-09T02:19:58.398Z,751.7
2024-05-09T02:22:30.688Z,751.8
2024-05-09T02:25:02.972Z,751.8
2024-05-09T02:26:19.116Z,752
2024-05-09T02:27:35.257Z,751.9
2024-05-09T02:28:51.417Z,752
2024-05-09T02:30:07.546Z,751.9
2024-05-09T02:31:23.687Z,752
2024-05-09T02:32:39.833Z,751.9
2024-05-09T02:33:55.001Z,751.9
2024-05-09T02:35:11.142Z,752.1
2024-05-09T02:37:43.424Z,752.1
2024-05-09T02:38:59.578Z,752
2024-05-09T02:40:15.712Z,752.1
2024-05-09T02:41:31.864Z,752.1
2024-05-09T02:42:48.001Z,752.1
2024-05-09T02:44:04.153Z,752.1
2024-05-09T02:45:20.290Z,752.2
2024-05-09T02:47:52.572Z,752.2
2024-05-09T02:49:08.716Z,752
2024-05-09T02:50:24.861Z,752.2
2024-05-09T02:51:40.021Z,752.2
2024-05-09T02:52:56.171Z,752.2
2024-05-09T02:54:12.305Z,752.3
2024-05-09T02:55:28.442Z,752.2
2024-05-09T02:56:44.601Z,752.3
2024-05-09T02:58:00.739Z,752.3
2024-05-09T02:59:16.868Z,752.3
2024-05-09T03:00:33.024Z,752.3
2024-05-09T03:03:05.306Z,752.4
2024-05-09T03:04:21.449Z,752.3
2024-05-09T03:05:37.587Z,752.3
2024-05-09T03:06:53.747Z,752.3
2024-05-09T03:08:08.907Z,752.4
2024-05-09T03:09:25.042Z,752.3
2024-05-09T03:10:41.196Z,752.3
2024-05-09T03:11:57.336Z,752.3
2024-05-09T03:13:13.482Z,752.4
2024-05-09T03:17:00.934Z,752.4
2024-05-09T03:18:16.085Z,752.6
2024-05-09T03:19:32.232Z,752.6
2024-05-09T03:20:48.371Z,752.6
2024-05-09T03:22:04.516Z,752.6
2024-05-09T03:23:20.667Z,752.5
2024-05-09T03:28:25.232Z,752.6
2024-05-09T03:29:41.378Z,752.7
2024-05-09T03:30:57.530Z,752.7
2024-05-09T03:32:13.667Z,752.8
2024-05-09T03:33:29.815Z,752.8
2024-05-09T03:34:44.971Z,752.7
2024-05-09T03:36:01.108Z,752.7
2024-05-09T03:37:17.251Z,752.7
2024-05-09T03:38:33.389Z,752.7
2024-05-09T03:41:05.681Z,752.7
2024-05-09T03:42:21.819Z,752.7
2024-05-09T03:43:37.964Z,752.8
2024-05-09T03:44:54.120Z,752.6
2024-05-09T03:46:10.260Z,752.8
2024-05-09T03:47:26.396Z,752.9
2024-05-09T03:48:42.548Z,752.8
2024-05-09T03:49:58.678Z,752.8
2024-05-09T03:51:14.820Z,752.9
2024-05-09T03:53:46.137Z,752.8
2024-05-09T03:55:02.268Z,752.7
2024-05-09T03:56:18.408Z,752.9
2024-05-09T03:57:33.586Z,752.7
2024-05-09T03:58:49.721Z,752.9
2024-05-09T04:00:05.866Z,752.9
2024-05-09T04:01:22.019Z,752.8
2024-05-09T04:02:38.163Z,752.9
2024-05-09T04:03:54.287Z,753
2024-05-09T04:05:10.437Z,752.9
2024-05-09T04:06:26.574Z,753
2024-05-09T04:07:41.761Z,752.9
2024-05-09T04:08:56.918Z,752.8
2024-05-09T04:10:13.055Z,753
2024-05-09T04:11:29.203Z,752.9
2024-05-09T04:12:45.344Z,752.8
2024-05-09T04:14:01.481Z,752.9
2024-05-09T04:15:17.631Z,753
2024-05-09T04:16:33.765Z,752.9
2024-05-09T04:17:49.904Z,752.9
2024-05-09T04:19:06.052Z,752.9
2024-05-09T04:20:21.236Z,752.9
2024-05-09T04:21:36.378Z,753
2024-05-09T04:22:52.540Z,753
2024-05-09T04:24:08.680Z,753
2024-05-09T04:25:24.811Z,753
2024-05-09T04:26:40.955Z,753
2024-05-09T04:27:57.106Z,753
2024-05-09T04:29:13.237Z,753
2024-05-09T04:31:45.000Z,753
2024-05-09T04:33:01.677Z,753
2024-05-09T04:34:17.825Z,753
2024-05-09T04:35:33.965Z,753.1
2024-05-09T04:36:50.112Z,753
2024-05-09T04:38:05.270Z,753
2024-05-09T04:39:21.406Z,753
2024-05-09T04:40:37.560Z,753
2024-05-09T04:41:53.706Z,753
2024-05-09T04:43:09.842Z,753.1
2024-05-09T04:44:25.979Z,753.1
2024-05-09T04:45:42.125Z,753
2024-05-09T04:46:58.262Z,753
2024-05-09T04:48:14.407Z,753.1
2024-05-09T04:49:30.000Z,753
2024-05-09T04:50:46.702Z,753
2024-05-09T04:52:02.844Z,753
2024-05-09T04:53:18.975Z,753.1
2024-05-09T04:54:35.129Z,753
2024-05-09T04:57:06.422Z,753
2024-05-09T04:58:22.580Z,752.9
2024-05-09T05:00:54.861Z,753.1
2024-05-09T05:02:11.003Z,753.1
2024-05-09T05:03:27.147Z,753.1
2024-05-09T05:04:43.295Z,753.2
2024-05-09T05:05:59.440Z,753
2024-05-09T05:07:15.566Z,753
2024-05-09T05:08:31.720Z,753
2024-05-09T05:09:47.866Z,752.9
2024-05-09T05:11:04.003Z,753
2024-05-09T05:12:20.150Z,753.1
2024-05-09T05:13:35.314Z,753.1
2024-05-09T05:14:51.444Z,753
2024-05-09T05:16:07.599Z,753.1
2024-05-09T05:17:23.733Z,753
2024-05-09T05:18:39.878Z,753
2024-05-09T05:19:56.018Z,753.1
2024-05-09T05:21:12.166Z,752.9
2024-05-09T05:22:28.298Z,753
2024-05-09T05:23:44.460Z,753.2
2024-05-09T05:25:00.584Z,753
2024-05-09T05:26:16.744Z,752.9
2024-05-09T05:27:32.888Z,753.1
2024-05-09T05:28:49.029Z,753.1
2024-05-09T05:30:04.188Z,753.1
2024-05-09T05:31:20.330Z,753
2024-05-09T05:32:36.475Z,753
2024-05-09T05:33:52.621Z,753
2024-05-09T05:35:08.754Z,753.1
2024-05-09T05:36:24.900Z,753
2024-05-09T05:37:41.037Z,753.1
2024-05-09T05:38:57.177Z,752.9
2024-05-09T05:40:13.319Z,752.9
2024-05-09T05:41:29.475Z,752.9
2024-05-09T05:42:45.619Z,752.9
2024-05-09T05:44:01.755Z,753
2024-05-09T05:45:17.904Z,752.9
2024-05-09T05:46:33.071Z,752.9
2024-05-09T05:47:49.201Z,752.9
2024-05-09T05:49:05.345Z,752.8
2024-05-09T05:50:21.492Z,752.8
2024-05-09T05:51:37.629Z,752.9
2024-05-09T05:52:53.781Z,752.8
2024-05-09T05:54:09.921Z,752.9
2024-05-09T05:55:26.067Z,752.9
2024-05-09T05:56:42.218Z,752.9
2024-05-09T05:57:58.000Z,752.8
2024-05-09T05:59:14.496Z,752.7
2024-05-09T06:00:30.630Z,752.8
2024-05-09T06:01:46.782Z,752.8
2024-05-09T06:03:02.926Z,752.7
2024-05-09T06:04:18.077Z,752.8
2024-05-09T06:05:34.237Z,752.8
2024-05-09T06:08:06.517Z,752.8
2024-05-09T06:09:22.655Z,752.8
2024-05-09T06:10:38.809Z,752.8
2024-05-09T06:11:54.947Z,752.7
2024-05-09T06:13:11.095Z,752.7
2024-05-09T06:14:27.236Z,752.7
2024-05-09T06:15:43.374Z,752.7
2024-05-09T06:16:59.507Z,752.7
2024-05-09T06:18:15.656Z,752.5
2024-05-09T06:19:31.813Z,752.6
2024-05-09T06:20:46.959Z,752.7
2024-05-09T06:22:03.100Z,752.7
2024-05-09T06:23:19.249Z,752.5
2024-05-09T06:24:35.383Z,752.6
2024-05-09T06:25:51.538Z,752.5
2024-05-09T06:27:07.668Z,752.5
2024-05-09T06:28:23.812Z,752.5
2024-05-09T06:29:39.954Z,752.5
2024-05-09T06:30:56.100Z,752.4
2024-05-09T06:32:12.249Z,752.4
2024-05-09T06:33:28.400Z,752.4
2024-05-09T06:34:44.540Z,752.4
2024-05-09T06:36:00.687Z,752.4
2024-05-09T06:37:15.836Z,752.3
2024-05-09T06:38:31.979Z,752.4
2024-05-09T06:39:48.122Z,752.4
2024-05-09T06:41:04.270Z,752.3
2024-05-09T06:42:20.412Z,752.4
2024-05-09T06:43:36.555Z,752.3
2024-05-09T06:44:52.703Z,752.2
2024-05-09T06:46:08.837Z,752.3
2024-05-09T06:47:24.989Z,752.2
2024-05-09T06:48:41.132Z,752.2
2024-05-09T06:49:57.264Z,752.3
2024-05-09T06:51:13.406Z,752.1
2024-05-09T06:52:29.563Z,752.1
2024-05-09T06:53:44.726Z,752.2
2024-05-09T06:55:00.859Z,752.1
2024-05-09T06:56:17.007Z,752.1
2024-05-09T06:57:33.148Z,752.2
2024-05-09T06:58:49.289Z,752.1
2024-05-09T07:00:05.437Z,752.1
2024-05-09T07:01:21.581Z,752
2024-05-09T07:02:37.718Z,752
2024-05-09T07:03:53.852Z,751.9
2024-05-09T07:05:10.010Z,751.9
2024-05-09T07:07:42.304Z,751.8
2024-05-09T07:08:58.441Z,751.6
2024-05-09T07:10:13.600Z,751.6
2024-05-09T07:11:29.740Z,751.6
2024-05-09T07:12:45.888Z,751.6
2024-05-09T07:14:02.029Z,751.6
2024-05-09T07:15:18.164Z,751.6
2024-05-09T07:16:34.319Z,751.6
2024-05-09T07:17:50.448Z,751.5
2024-05-09T07:19:06.593Z,751.6
2024-05-09T07:20:22.745Z,751.6
2024-05-09T07:21:38.878Z,751.6
2024-05-09T07:22:55.036Z,751.6
2024-05-09T07:24:11.177Z,751.7
2024-05-09T07:25:27.314Z,751.7
2024-05-09T07:26:43.468Z,751.7
2024-05-09T07:27:58.611Z,751.6
2024-05-09T07:29:14.763Z,751.6
2024-05-09T07:30:30.907Z,751.7
2024-05-09T07:31:47.045Z,751.6
2024-05-09T07:33:03.200Z,751.7
2024-05-09T07:34:19.333Z,751.7
2024-05-09T07:35:35.470Z,751.5
2024-05-09T07:36:51.627Z,751.4
2024-05-09T07:38:07.767Z,751.3
2024-05-09T07:39:23.912Z,751.3
2024-05-09T07:40:40.046Z,751.3
2024-05-09T07:41:56.199Z,751.3
2024-05-09T07:43:12.340Z,751.3
2024-05-09T07:44:27.493Z,751.2
2024-05-09T07:45:43.648Z,751.2
2024-05-09T07:46:59.794Z,751.1
2024-05-09T07:48:15.920Z,751
2024-05-09T07:49:32.075Z,751
2024-05-09T07:50:48.214Z,750.8
2024-05-09T07:52:04.349Z,750.8
2024-05-09T07:53:20.503Z,750.8
2024-05-09T07:54:36.655Z,750.8
2024-05-09T07:55:52.786Z,750.7
2024-05-09T07:57:08.939Z,750.7
2024-05-09T07:58:25.070Z,750.7
2024-05-09T07:59:41.221Z,750.6
2024-05-09T08:00:57.371Z,750.5
2024-05-09T08:02:12.525Z,750.6
2024-05-09T08:03:28.675Z,750.5
2024-05-09T08:04:44.821Z,750.5
2024-05-09T08:06:00.952Z,750.4
2024-05-09T08:07:17.088Z,750.3
2024-05-09T08:08:33.250Z,750.3
2024-05-09T08:09:49.391Z,750.4
2024-05-09T08:11:05.536Z,750.3
2024-05-09T08:13:36.841Z,750.2
2024-05-09T08:14:51.999Z,750.1
2024-05-09T08:16:08.142Z,750.1
2024-05-09T08:17:24.288Z,750.1
2024-05-09T08:18:40.428Z,750
2024-05-09T08:19:56.581Z,750
2024-05-09T08:21:12.710Z,749.9
2024-05-09T08:22:28.857Z,749.9
2024-05-09T08:23:45.003Z,749.9
2024-05-09T08:25:01.144Z,749.9
2024-05-09T08:26:17.297Z,749.8
2024-05-09T08:27:33.431Z,749.8
2024-05-09T08:28:49.569Z,749.8
2024-05-09T08:30:05.717Z,749.7
2024-05-09T08:31:20.873Z,749.7
2024-05-09T08:32:37.028Z,749.6
2024-05-09T08:33:53.174Z,749.6
2024-05-09T08:35:09.302Z,749.6
2024-05-09T08:36:25.458Z,749.5
2024-05-09T08:37:41.606Z,749.4
2024-05-09T08:38:57.742Z,749.4
2024-05-09T08:40:13.876Z,749.4
2024-05-09T08:41:30.038Z,749.3
2024-05-09T08:42:46.166Z,749.4
2024-05-09T08:44:02.307Z,749.2
2024-05-09T08:45:18.467Z,749.2
2024-05-09T08:46:34.609Z,749.2
2024-05-09T08:47:49.756Z,749
2024-05-09T08:49:05.897Z,749
2024-05-09T08:50:22.049Z,749
2024-05-09T08:51:38.194Z,748.9
2024-05-09T08:54:10.480Z,748.8
2024-05-09T08:55:26.615Z,748.9
2024-05-09T08:56:42.775Z,748.8
2024-05-09T08:57:58.913Z,748.7
2024-05-09T09:00:31.198Z,748.6
2024-05-09T09:01:47.337Z,748.5
2024-05-09T09:03:03.494Z,748.5
2024-05-09T09:04:18.638Z,748.3
2024-05-09T09:05:34.778Z,748.3
2024-05-09T09:06:50.934Z,748.3
2024-05-09T09:08:07.074Z,748.2
2024-05-09T09:09:23.217Z,748.1
2024-05-09T09:10:39.360Z,748
2024-05-09T09:11:55.503Z,748
2024-05-09T09:13:11.642Z,748
2024-05-09T09:14:27.789Z,747.8
2024-05-09T09:15:43.923Z,747.7
2024-05-09T09:17:00.072Z,747.8
2024-05-09T09:18:16.222Z,747.8
2024-05-09T09:19:32.368Z,747.7
2024-05-09T09:20:48.499Z,747.6
2024-05-09T09:22:03.658Z,747.5
2024-05-09T09:23:19.801Z,747.5
2024-05-09T09:24:35.946Z,747.4
2024-05-09T09:25:52.093Z,747.3
2024-05-09T09:27:08.233Z,747.3
2024-05-09T09:28:24.391Z,747.3
2024-05-09T09:29:40.520Z,747.2
2024-05-09T09:30:56.675Z,747.2
2024-05-09T09:32:12.812Z,746.9
2024-05-09T09:33:28.967Z,747
2024-05-09T09:34:45.107Z,747
2024-05-09T09:37:17.389Z,746.7
2024-05-09T09:38:32.546Z,746.7
2024-05-09T09:39:48.690Z,746.7
2024-05-09T09:41:04.828Z,746.6
2024-05-09T09:42:20.968Z,746.7
2024-05-09T09:43:37.130Z,746.6
2024-05-09T09:44:53.271Z,746.5
2024-05-09T09:46:09.400Z,746.3
2024-05-09T09:47:25.562Z,746.4
2024-05-09T09:48:41.696Z,746.3
2024-05-09T09:49:57.841Z,746.3
2024-05-09T09:51:13.981Z,746.3
2024-05-09T09:52:30.116Z,746.2
2024-05-09T09:53:46.266Z,746.2
2024-05-09T09:55:01.422Z,746.1
2024-05-09T09:56:17.563Z,746.1
2024-05-09T09:57:33.722Z,746
2024-05-09T09:58:49.866Z,745.9
2024-05-09T10:00:06.001Z,745.9
2024-05-09T10:01:22.154Z,745.8
2024-05-09T10:02:38.286Z,745.7
2024-05-09T10:03:54.442Z,745.6
2024-05-09T10:05:10.567Z,745.6
2024-05-09T10:06:26.722Z,745.6
2024-05-09T10:07:42.859Z,745.6
2024-05-09T10:08:59.001Z,745.5
2024-05-09T10:10:15.136Z,745.4
2024-05-09T10:11:30.296Z,745.3
2024-05-09T10:12:46.448Z,745.3
2024-05-09T10:14:02.599Z,745.3
2024-05-09T10:15:18.723Z,745.2
2024-05-09T10:16:34.867Z,745.1
2024-05-09T10:17:51.007Z,745
2024-05-09T10:19:07.155Z,745
2024-05-09T10:21:39.437Z,745
2024-05-09T10:22:55.586Z,745
2024-05-09T10:24:11.735Z,744.9
2024-05-09T10:25:27.867Z,744.7
2024-05-09T10:26:44.015Z,744.8
2024-05-09T10:27:59.178Z,744.7
2024-05-09T10:29:15.325Z,744.6
2024-05-09T10:30:31.455Z,744.6
2024-05-09T10:31:47.596Z,744.6
2024-05-09T10:33:03.751Z,744.6
2024-05-09T10:34:19.892Z,744.6
2024-05-09T10:35:36.025Z,744.5
2024-05-09T10:36:52.177Z,744.3
2024-05-09T10:38:08.309Z,744.3
2024-05-09T10:39:24.451Z,744.3
2024-05-09T10:40:40.610Z,744.3
2024-05-09T10:41:56.749Z,744.1
2024-05-09T10:43:12.885Z,744.1
2024-05-09T10:44:28.051Z,744.1
2024-05-09T10:45:44.190Z,744
2024-05-09T10:47:00.321Z,744
2024-05-09T10:48:16.475Z,743.9
2024-05-09T10:49:32.621Z,744
2024-05-09T10:50:48.749Z,743.9
2024-05-09T10:52:04.903Z,743.9
2024-05-09T10:53:21.037Z,743.8
2024-05-09T10:54:37.196Z,743.8
2024-05-09T10:55:53.332Z,743.7
2024-05-09T10:57:09.463Z,743.7
2024-05-09T10:58:25.607Z,743.6
2024-05-09T10:59:41.751Z,743.7
2024-05-09T11:00:57.910Z,743.6
2024-05-09T11:02:14.048Z,743.4
2024-05-09T11:03:29.214Z,743.6
2024-05-09T11:04:45.341Z,743.4
2024-05-09T11:06:01.492Z,743.4
2024-05-09T11:07:17.624Z,743.4
2024-05-09T11:08:33.777Z,743.3
2024-05-09T11:09:49.926Z,743.3
2024-05-09T11:12:22.200Z,743.3
2024-05-09T11:13:38.345Z,743.1
2024-05-09T11:14:54.485Z,743.2
2024-05-09T11:16:10.626Z,743.1
2024-05-09T11:17:26.778Z,743.2
2024-05-09T11:18:42.905Z,743.1
2024-05-09T11:19:58.081Z,743
2024-05-09T11:21:14.215Z,742.9
2024-05-09T11:23:46.510Z,742.9
2024-05-09T11:25:02.641Z,742.9
2024-05-09T11:26:18.788Z,742.8
2024-05-09T11:27:34.937Z,742.9
2024-05-09T11:28:51.064Z,742.8
2024-05-09T11:30:07.204Z,742.7
2024-05-09T11:31:23.354Z,742.7
2024-05-09T11:32:39.491Z,742.6
2024-05-09T11:33:55.641Z,742.6
2024-05-09T11:35:11.778Z,742.4
2024-05-09T11:36:26.938Z,742.5
2024-05-09T11:37:43.095Z,742.5
2024-05-09T11:38:59.217Z,742.4
2024-05-09T11:40:15.380Z,742.4
2024-05-09T11:41:31.518Z,742.4
2024-05-09T11:42:47.659Z,742.4
2024-05-09T11:44:03.789Z,742.3
2024-05-09T11:45:19.934Z,742.3
2024-05-09T11:46:36.075Z,742.3
2024-05-09T11:47:52.234Z,742.2
2024-05-09T11:49:08.378Z,742.2
2024-05-09T11:50:24.500Z,742.1
2024-05-09T11:51:40.659Z,742.2
2024-05-09T11:52:56.792Z,742.1
2024-05-09T11:54:11.949Z,742.1
2024-05-09T11:55:28.103Z,742.1
2024-05-09T11:56:44.247Z,742
2024-05-09T11:58:00.377Z,742
2024-05-09T11:59:16.521Z,741.9
2024-05-09T12:00:32.673Z,741.9
2024-05-09T12:01:48.809Z,742
2024-05-09T12:03:04.959Z,741.8
2024-05-09T12:04:21.103Z,741.7
2024-05-09T12:05:37.246Z,741.7
2024-05-09T12:06:53.380Z,741.8
2024-05-09T12:08:09.532Z,741.7
2024-05-09T12:09:25.680Z,741.7
2024-05-09T12:10:40.826Z,741.6
2024-05-09T12:11:56.966Z,741.7
2024-05-09T12:13:13.108Z,741.7
2024-05-09T12:14:29.266Z,741.5
2024-05-09T12:15:45.396Z,741.6
2024-05-09T12:17:01.540Z,741.5
2024-05-09T12:19:33.823Z,741.4
2024-05-09T12:20:49.967Z,741.5
2024-05-09T12:22:06.106Z,741.4
2024-05-09T12:23:22.248Z,741.3
2024-05-09T12:25:54.536Z,741.3
2024-05-09T12:27:09.706Z,741.4
2024-05-09T12:28:25.841Z,741.3
2024-05-09T12:29:41.014Z,741.2
2024-05-09T12:30:57.144Z,741.3
2024-05-09T12:32:13.288Z,741.2
2024-05-09T12:33:29.431Z,741.2
2024-05-09T12:34:45.573Z,741.2
2024-05-09T12:36:01.721Z,741.2
2024-05-09T12:37:17.873Z,741.2
2024-05-09T12:38:33.998Z,741
2024-05-09T12:41:06.292Z,741.1
2024-05-09T12:42:21.462Z,741.1
2024-05-09T12:43:37.607Z,741.1
2024-05-09T12:44:52.759Z,741.1
2024-05-09T12:46:08.898Z,741.1
2024-05-09T12:47:25.043Z,741
2024-05-09T12:48:41.185Z,741
2024-05-09T12:49:57.328Z,741
2024-05-09T12:51:13.482Z,741
2024-05-09T12:52:29.609Z,740.9
2024-05-09T12:53:45.765Z,740.9
2024-05-09T12:55:00.927Z,741
2024-05-09T12:56:16.090Z,741
2024-05-09T12:57:32.221Z,740.8
2024-05-09T12:58:48.369Z,740.9
2024-05-09T13:00:04.518Z,740.8
2024-05-09T13:01:20.651Z,740.8
2024-05-09T13:02:36.788Z,740.8
2024-05-09T13:03:52.929Z,740.8
2024-05-09T13:06:25.232Z,740.7
2024-05-09T13:07:41.362Z,740.8
2024-05-09T13:08:57.516Z,740.8
2024-05-09T13:10:13.640Z,740.8
2024-05-09T13:11:29.794Z,740.8
2024-05-09T13:14:01.101Z,740.7
2024-05-09T13:15:16.275Z,740.7
2024-05-09T13:16:32.430Z,740.7
2024-05-09T13:17:47.578Z,740.8
2024-05-09T13:19:03.730Z,740.7
2024-05-09T13:20:19.859Z,740.8
2024-05-09T13:21:35.999Z,740.6
2024-05-09T13:22:52.156Z,740.6
2024-05-09T13:24:08.288Z,740.7
2024-05-09T13:25:24.434Z,740.7
2024-05-09T13:26:40.587Z,740.6
2024-05-09T13:29:11.896Z,740.7
2024-05-09T13:30:27.042Z,740.5
2024-05-09T13:31:43.187Z,740.6
2024-05-09T13:32:59.323Z,740.6
2024-05-09T13:34:15.472Z,740.5
2024-05-09T13:35:31.609Z,740.5
2024-05-09T13:36:47.767Z,740.7
2024-05-09T13:38:03.908Z,740.6
2024-05-09T13:39:20.042Z,740.6
2024-05-09T13:41:52.333Z,740.5
2024-05-09T13:43:08.470Z,740.5
2024-05-09T13:44:24.608Z,740.6
2024-05-09T13:45:40.764Z,740.6
2024-05-09T13:46:55.923Z,740.5
2024-05-09T13:48:12.056Z,740.5
2024-05-09T13:49:28.208Z,740.5
2024-05-09T13:50:44.347Z,740.4
2024-05-09T13:52:00.493Z,740.4
2024-05-09T13:54:32.775Z,740.5
2024-05-09T13:55:48.916Z,740.4
2024-05-09T13:57:05.056Z,740.5
2024-05-09T13:58:21.201Z,740.4
2024-05-09T13:59:37.352Z,740.5
2024-05-09T14:00:53.489Z,740.4
2024-05-09T14:02:09.621Z,740.4
2024-05-09T14:03:24.787Z,740.4
2024-05-09T14:04:40.927Z,740.5
2024-05-09T14:05:57.068Z,740.4
2024-05-09T14:07:13.212Z,740.5
2024-05-09T14:08:28.390Z,740.5
2024-05-09T14:10:59.675Z,740.4
2024-05-09T14:12:15.828Z,740.5
2024-05-09T14:13:31.960Z,740.6
2024-05-09T14:14:48.115Z,740.4
2024-05-09T14:16:04.260Z,740.4
2024-05-09T14:17:20.391Z,740.4
2024-05-09T14:18:36.528Z,740.4
2024-05-09T14:21:08.815Z,740.5
2024-05-09T14:22:24.957Z,740.5
2024-05-09T14:23:40.134Z,740.6
2024-05-09T14:24:55.282Z,740.4
2024-05-09T14:26:11.443Z,740.5
2024-05-09T14:27:27.573Z,740.5
2024-05-09T14:28:43.729Z,740.5
2024-05-09T14:29:59.859Z,740.5
2024-05-09T14:31:16.004Z,740.5
2024-05-09T14:32:32.151Z,740.5
2024-05-09T14:33:48.299Z,740.6
2024-05-09T14:35:04.429Z,740.5
2024-05-09T14:36:19.609Z,740.4
2024-05-09T14:37:34.758Z,740.4
2024-05-09T14:38:50.906Z,740.4
2024-05-09T14:40:07.053Z,740.5
2024-05-09T14:41:23.197Z,740.4
2024-05-09T14:42:39.326Z,740.5
2024-05-09T14:43:55.475Z,740.5
2024-05-09T14:45:11.606Z,740.5
2024-05-09T14:46:27.766Z,740.4
2024-05-09T14:47:43.902Z,740.5
2024-05-09T14:49:00.055Z,740.5
2024-05-09T14:50:16.181Z,740.6
2024-05-09T14:51:32.326Z,740.5
2024-05-09T14:52:48.467Z,740.5
2024-05-09T14:54:03.641Z,740.5
2024-05-09T14:55:19.770Z,740.6
2024-05-09T14:56:35.908Z,740.5
2024-05-09T14:57:52.056Z,740.6
2024-05-09T14:59:08.193Z,740.4
2024-05-09T15:00:24.354Z,740.4
2024-05-09T15:01:40.477Z,740.6
2024-05-09T15:02:56.629Z,740.6
2024-05-09T15:04:12.766Z,740.5
2024-05-09T15:05:28.921Z,740.5
2024-05-09T15:06:45.061Z,740.6
2024-05-09T15:08:01.209Z,740.6
2024-05-09T15:09:17.339Z,740.6
2024-05-09T15:11:49.637Z,740.5
2024-05-09T15:13:05.766Z,740.6
2024-05-09T15:14:20.936Z,740.5
2024-05-09T15:15:37.078Z,740.7
2024-05-09T15:16:53.207Z,740.7
2024-05-09T15:19:25.503Z,740.6
2024-05-09T15:20:41.632Z,740.6
2024-05-09T15:21:57.787Z,740.5
2024-05-09T15:23:13.918Z,740.6
2024-05-09T15:24:30.078Z,740.7
2024-05-09T15:28:18.494Z,740.6
2024-05-09T15:29:33.662Z,740.6
2024-05-09T15:30:49.814Z,740.7
2024-05-09T15:32:04.967Z,740.7
2024-05-09T15:35:53.392Z,740.6
2024-05-09T15:37:09.525Z,740.7
2024-05-09T15:38:25.682Z,740.7
2024-05-09T15:40:57.950Z,740.7
2024-05-09T15:42:14.103Z,740.6
2024-05-09T15:43:30.243Z,740.8
2024-05-09T15:44:46.391Z,740.7
2024-05-09T15:46:01.559Z,740.7
2024-05-09T15:47:16.708Z,740.8
2024-05-09T15:48:32.865Z,740.7
2024-05-09T15:49:49.008Z,740.8
2024-05-09T15:51:05.138Z,740.8
2024-05-09T15:52:21.290Z,740.7
2024-05-09T15:54:53.567Z,740.8
2024-05-09T15:56:09.719Z,740.8
2024-05-09T15:57:25.850Z,740.8
2024-05-09T15:58:41.997Z,740.8
2024-05-09T15:59:58.140Z,740.7
2024-05-09T16:01:14.272Z,740.9
2024-05-09T16:02:30.428Z,740.8
2024-05-09T16:03:46.573Z,740.9
2024-05-09T16:05:01.716Z,740.8
2024-05-09T16:06:17.865Z,740.8
2024-05-09T16:07:34.007Z,740.8
2024-05-09T16:08:50.155Z,740.8
2024-05-09T16:11:22.427Z,740.9
2024-05-09T16:12:38.582Z,740.8
2024-05-09T16:13:54.715Z,740.9
2024-05-09T16:15:10.872Z,740.9
2024-05-09T16:16:26.997Z,740.9
2024-05-09T16:17:43.138Z,740.9
2024-05-09T16:18:59.298Z,740.8
2024-05-09T16:20:15.440Z,740.9
2024-05-09T16:21:31.584Z,740.9
2024-05-09T16:22:46.750Z,740.9
2024-05-09T16:24:02.881Z,741
2024-05-09T16:25:18.040Z,741
2024-05-09T16:26:34.184Z,740.9
2024-05-09T16:27:50.339Z,740.8
2024-05-09T16:29:06.472Z,741
2024-05-09T16:31:38.760Z,741.1
2024-05-09T16:32:54.903Z,740.9
2024-05-09T16:34:11.050Z,741
2024-05-09T16:35:27.190Z,741
2024-05-09T16:36:43.329Z,741
2024-05-09T16:37:59.473Z,741
2024-05-09T16:39:15.607Z,741
2024-05-09T16:41:47.892Z,741
2024-05-09T16:43:04.040Z,741
2024-05-09T16:44:19.214Z,741.1
2024-05-09T16:45:34.374Z,741.1
2024-05-09T16:46:50.531Z,741.1
2024-05-09T16:48:06.658Z,741
2024-05-09T16:49:22.809Z,741.1
2024-05-09T16:51:55.101Z,741.1
2024-05-09T16:53:11.244Z,741.2
2024-05-09T16:54:27.379Z,741.2
2024-05-09T16:55:43.521Z,741.1
2024-05-09T16:56:59.661Z,741.1
2024-05-09T16:58:15.803Z,741.1
2024-05-09T16:59:31.941Z,741.1
2024-05-09T17:00:48.093Z,741.1
2024-05-09T17:02:03.254Z,741.1
2024-05-09T17:03:19.388Z,741.2
2024-05-09T17:04:35.534Z,741.2
2024-05-09T17:07:07.807Z,741.2
2024-05-09T17:08:23.954Z,741.2
2024-05-09T17:09:40.096Z,741.2
2024-05-09T17:10:56.255Z,741.2
2024-05-09T17:13:28.533Z,741.2
2024-05-09T17:14:44.673Z,741.3
2024-05-09T17:17:16.958Z,741.2
2024-05-09T17:19:48.252Z,741.3
2024-05-09T17:21:04.403Z,741.3
2024-05-09T17:22:20.547Z,741.2
2024-05-09T17:23:36.686Z,741.2
2024-05-09T17:24:52.822Z,741.3
2024-05-09T17:26:08.970Z,741.3
2024-05-09T17:27:25.118Z,741.3
2024-05-09T17:28:41.255Z,741.4
2024-05-09T17:29:57.389Z,741.4
2024-05-09T17:32:29.679Z,741.3
2024-05-09T17:33:45.824Z,741.4
2024-05-09T17:35:01.973Z,741.4
2024-05-09T17:36:18.114Z,741.4
2024-05-09T17:37:33.260Z,741.5
2024-05-09T17:38:49.404Z,741.5
2024-05-09T17:40:05.541Z,741.4
2024-05-09T17:41:21.686Z,741.5
2024-05-09T17:42:37.838Z,741.5
2024-05-09T17:45:10.113Z,741.4
2024-05-09T17:46:26.257Z,741.4
2024-05-09T17:47:42.411Z,741.4
2024-05-09T17:48:58.547Z,741.5
2024-05-09T17:50:14.696Z,741.6
2024-05-09T17:51:30.838Z,741.5
2024-05-09T17:52:46.973Z,741.5